createdAt,value
2017-09-15T00:00:36.398Z,10.5
2017-09-15T00:01:46.512Z,10.51
2017-09-15T00:02:56.970Z,10.59
2017-09-15T00:04:07.094Z,10.57
2017-09-15T00:05:17.203Z,10.58
2017-09-15T00:06:27.644Z,10.59
2017-09-15T00:07:38.063Z,10.5
2017-09-15T00:08:48.517Z,10.55
2017-09-15T00:09:58.984Z,10.57
2017-09-15T00:11:08.986Z,10.57
2017-09-15T00:12:19.413Z,10.55
2017-09-15T00:13:29.848Z,10.57
2017-09-15T00:14:40.279Z,10.55
2017-09-15T00:15:50.712Z,10.5
2017-09-15T00:17:01.599Z,10.54
2017-09-15T00:18:12.057Z,10.61
2017-09-15T00:19:22.509Z,10.54
2017-09-15T00:20:33.925Z,10.58
2017-09-15T00:21:44.348Z,10.55
2017-09-15T00:22:54.705Z,10.52
2017-09-15T00:24:04.376Z,10.48
2017-09-15T00:25:14.798Z,10.55
2017-09-15T00:26:25.224Z,10.54
2017-09-15T00:27:35.867Z,10.5
2017-09-15T00:28:46.535Z,10.54
2017-09-15T00:29:57.425Z,10.55
2017-09-15T00:31:07.884Z,10.54
2017-09-15T00:32:18.313Z,10.54
2017-09-15T00:33:28.737Z,10.5
2017-09-15T00:34:39.426Z,10.59
2017-09-15T00:35:49.865Z,10.54
2017-09-15T00:37:00.304Z,10.61
2017-09-15T00:38:10.423Z,10.54
2017-09-15T00:39:20.843Z,10.61
2017-09-15T00:40:31.512Z,10.61
2017-09-15T00:41:42.005Z,10.57
2017-09-15T00:42:52.424Z,10.58
2017-09-15T00:44:02.529Z,10.61
2017-09-15T00:45:12.996Z,10.73
2017-09-15T00:46:23.673Z,10.63
2017-09-15T00:47:33.852Z,10.66
2017-09-15T00:48:44.292Z,10.69
2017-09-15T00:49:54.424Z,10.65
2017-09-15T00:51:04.880Z,10.69
2017-09-15T00:52:15.244Z,10.8
2017-09-15T00:53:25.689Z,10.73
2017-09-15T00:54:36.127Z,10.75
2017-09-15T00:55:46.547Z,10.73
2017-09-15T00:56:57.080Z,10.76
2017-09-15T00:58:07.753Z,10.72
2017-09-15T00:59:18.180Z,10.73
2017-09-15T01:00:28.632Z,10.77
2017-09-15T01:01:38.791Z,10.84
2017-09-15T01:02:49.225Z,10.87
2017-09-15T01:03:59.457Z,10.87
2017-09-15T01:05:09.898Z,10.87
2017-09-15T01:06:20.345Z,10.76
2017-09-15T01:07:30.767Z,10.87
2017-09-15T01:08:41.465Z,10.87
2017-09-15T01:09:52.139Z,10.83
2017-09-15T01:11:02.558Z,10.85
2017-09-15T01:12:13.016Z,10.85
2017-09-15T01:13:23.469Z,10.87
2017-09-15T01:14:34.246Z,10.85
2017-09-15T01:15:45.016Z,10.87
2017-09-15T01:16:55.595Z,10.85
2017-09-15T01:18:06.053Z,10.85
2017-09-15T01:19:16.494Z,10.88
2017-09-15T01:20:26.964Z,10.92
2017-09-15T01:21:37.696Z,10.87
2017-09-15T01:22:48.161Z,10.91
2017-09-15T01:23:58.637Z,10.92
2017-09-15T01:25:09.091Z,10.9
2017-09-15T01:26:19.534Z,10.9
2017-09-15T01:27:30.222Z,10.92
2017-09-15T01:28:40.666Z,10.91
2017-09-15T01:29:51.110Z,10.91
2017-09-15T01:31:01.638Z,10.95
2017-09-15T01:32:12.082Z,10.91
2017-09-15T01:33:22.468Z,10.88
2017-09-15T01:34:32.927Z,10.91
2017-09-15T01:35:43.431Z,10.91
2017-09-15T01:36:53.858Z,10.97
2017-09-15T01:38:04.350Z,10.88
2017-09-15T01:39:14.748Z,10.92
2017-09-15T01:40:25.178Z,10.92
2017-09-15T01:41:35.684Z,10.9
2017-09-15T01:42:46.106Z,11.03
2017-09-15T01:43:56.557Z,10.94
2017-09-15T01:45:07.278Z,11.02
2017-09-15T01:46:17.688Z,10.98
2017-09-15T01:47:28.178Z,10.98
2017-09-15T01:48:38.599Z,11.02
2017-09-15T01:49:49.038Z,10.97
2017-09-15T01:51:00.047Z,11.05
2017-09-15T01:52:10.464Z,11.02
2017-09-15T01:53:20.937Z,10.97
2017-09-15T01:54:31.362Z,10.92
2017-09-15T01:55:41.883Z,10.9
2017-09-15T01:56:52.637Z,10.91
2017-09-15T01:58:02.974Z,10.92
2017-09-15T01:59:13.690Z,10.88
2017-09-15T02:00:24.137Z,10.87
2017-09-15T02:01:34.270Z,10.9
2017-09-15T02:02:44.954Z,10.85
2017-09-15T02:03:55.420Z,10.84
2017-09-15T02:05:05.893Z,10.88
2017-09-15T02:06:16.355Z,10.83
2017-09-15T02:07:26.772Z,10.84
2017-09-15T02:08:37.261Z,10.83
2017-09-15T02:09:47.753Z,10.85
2017-09-15T02:10:58.184Z,10.83
2017-09-15T02:12:08.292Z,10.85
2017-09-15T02:13:18.714Z,10.84
2017-09-15T02:14:29.433Z,10.88
2017-09-15T02:15:39.579Z,10.85
2017-09-15T02:16:50.018Z,10.84
2017-09-15T02:18:00.508Z,10.85
2017-09-15T02:19:10.933Z,10.85
2017-09-15T02:20:21.669Z,10.85
2017-09-15T02:21:32.140Z,10.8
2017-09-15T02:22:42.550Z,10.87
2017-09-15T02:23:53.013Z,10.79
2017-09-15T02:25:03.574Z,10.88
2017-09-15T02:26:13.954Z,10.87
2017-09-15T02:27:23.988Z,10.72
2017-09-15T02:28:34.450Z,10.75
2017-09-15T02:29:44.239Z,10.84
2017-09-15T02:30:54.380Z,10.79
2017-09-15T02:32:05.048Z,10.7
2017-09-15T02:33:15.481Z,10.65
2017-09-15T02:34:25.964Z,10.73
2017-09-15T02:35:36.381Z,10.66
2017-09-15T02:36:46.867Z,10.67
2017-09-15T02:37:57.555Z,10.76
2017-09-15T02:39:08.050Z,10.69
2017-09-15T02:40:18.576Z,10.66
2017-09-15T02:41:29.014Z,10.54
2017-09-15T02:42:39.574Z,10.54
2017-09-15T02:43:50.274Z,10.57
2017-09-15T02:45:00.722Z,10.59
2017-09-15T02:46:11.140Z,10.59
2017-09-15T02:47:21.267Z,10.59
2017-09-15T02:48:31.414Z,10.58
2017-09-15T02:49:42.397Z,10.54
2017-09-15T02:50:52.813Z,10.48
2017-09-15T02:52:03.244Z,10.51
2017-09-15T02:53:13.692Z,10.47
2017-09-15T02:54:24.305Z,10.48
2017-09-15T02:55:34.986Z,10.45
2017-09-15T02:56:45.567Z,10.48
2017-09-15T02:57:56.060Z,10.45
2017-09-15T02:59:06.688Z,10.48
2017-09-15T03:00:17.247Z,10.4
2017-09-15T03:01:27.619Z,10.42
2017-09-15T03:02:38.298Z,10.43
2017-09-15T03:03:48.757Z,10.34
2017-09-15T03:04:59.202Z,10.36
2017-09-15T03:06:09.459Z,10.32
2017-09-15T03:07:20.233Z,10.39
2017-09-15T03:08:30.739Z,10.34
2017-09-15T03:09:41.165Z,10.32
2017-09-15T03:10:51.667Z,10.26
2017-09-15T03:12:02.108Z,10.33
2017-09-15T03:13:13.016Z,10.26
2017-09-15T03:14:23.618Z,10.27
2017-09-15T03:15:34.307Z,10.3
2017-09-15T03:16:44.715Z,10.34
2017-09-15T03:17:55.134Z,10.39
2017-09-15T03:19:06.029Z,10.29
2017-09-15T03:20:16.466Z,10.32
2017-09-15T03:21:27.123Z,10.39
2017-09-15T03:22:37.563Z,10.29
2017-09-15T03:23:48.032Z,10.27
2017-09-15T03:24:58.702Z,10.3
2017-09-15T03:26:09.188Z,10.34
2017-09-15T03:27:19.631Z,10.27
2017-09-15T03:28:30.062Z,10.29
2017-09-15T03:29:40.562Z,10.36
2017-09-15T03:30:51.241Z,10.24
2017-09-15T03:32:01.718Z,10.19
2017-09-15T03:33:12.052Z,10.19
2017-09-15T03:34:22.035Z,10.18
2017-09-15T03:35:33.464Z,10.17
2017-09-15T03:36:44.161Z,10.18
2017-09-15T03:37:54.281Z,10.18
2017-09-15T03:39:04.710Z,10.22
2017-09-15T03:40:15.129Z,10.19
2017-09-15T03:41:25.599Z,10.13
2017-09-15T03:42:36.304Z,10.11
2017-09-15T03:43:46.752Z,10.1
2017-09-15T03:44:57.309Z,10.11
2017-09-15T03:46:07.779Z,10.1
2017-09-15T03:47:18.369Z,10.13
2017-09-15T03:48:30.018Z,9.99
2017-09-15T03:49:40.517Z,10.02
2017-09-15T03:50:50.930Z,10.03
2017-09-15T03:52:01.398Z,10
2017-09-15T03:53:11.839Z,10.1
2017-09-15T03:54:22.728Z,10
2017-09-15T03:55:33.336Z,10.02
2017-09-15T03:56:43.495Z,9.99
2017-09-15T03:57:54.033Z,10.02
2017-09-15T03:59:04.481Z,10.07
2017-09-15T04:00:15.201Z,10.03
2017-09-15T04:01:25.042Z,9.99
2017-09-15T04:02:35.182Z,10
2017-09-15T04:03:45.648Z,9.98
2017-09-15T04:04:55.778Z,10.02
2017-09-15T04:06:06.563Z,9.96
2017-09-15T04:07:17.037Z,9.91
2017-09-15T04:08:27.492Z,9.92
2017-09-15T04:09:37.932Z,9.89
2017-09-15T04:10:48.414Z,9.91
2017-09-15T04:11:58.784Z,9.88
2017-09-15T04:13:09.203Z,9.92
2017-09-15T04:14:19.332Z,9.92
2017-09-15T04:15:29.792Z,9.95
2017-09-15T04:16:40.521Z,9.93
2017-09-15T04:17:50.876Z,9.85
2017-09-15T04:19:01.300Z,9.85
2017-09-15T04:20:11.444Z,9.88
2017-09-15T04:21:21.883Z,9.89
2017-09-15T04:22:32.298Z,9.88
2017-09-15T04:23:43.051Z,9.88
2017-09-15T04:24:53.509Z,9.85
2017-09-15T04:26:03.980Z,9.92
2017-09-15T04:27:14.498Z,9.89
2017-09-15T04:28:25.588Z,9.84
2017-09-15T04:29:35.979Z,9.91
2017-09-15T04:30:46.426Z,9.85
2017-09-15T04:31:56.537Z,9.83
2017-09-15T04:33:06.957Z,9.83
2017-09-15T04:34:17.497Z,9.78
2017-09-15T04:35:28.176Z,9.81
2017-09-15T04:36:38.607Z,9.84
2017-09-15T04:37:49.057Z,9.83
2017-09-15T04:38:59.195Z,9.8
2017-09-15T04:40:09.666Z,9.83
2017-09-15T04:41:20.506Z,9.77
2017-09-15T04:42:30.952Z,9.81
2017-09-15T04:43:41.389Z,9.77
2017-09-15T04:44:52.171Z,9.81
2017-09-15T04:46:02.315Z,9.8
2017-09-15T04:47:13.064Z,9.75
2017-09-15T04:48:23.552Z,9.71
2017-09-15T04:49:33.663Z,9.78
2017-09-15T04:50:44.083Z,9.8
2017-09-15T04:51:54.544Z,9.73
2017-09-15T04:53:04.914Z,9.75
2017-09-15T04:54:15.351Z,9.75
2017-09-15T04:55:25.809Z,9.71
2017-09-15T04:56:36.233Z,9.66
2017-09-15T04:57:46.744Z,9.74
2017-09-15T04:58:57.425Z,9.67
2017-09-15T05:00:07.546Z,9.81
2017-09-15T05:01:17.990Z,9.77
2017-09-15T05:02:28.484Z,9.77
2017-09-15T05:03:38.894Z,9.81
2017-09-15T05:04:49.824Z,9.85
2017-09-15T05:06:00.249Z,9.93
2017-09-15T05:07:10.721Z,10.02
2017-09-15T05:08:20.542Z,9.95
2017-09-15T05:09:31.030Z,10.08
2017-09-15T05:10:41.699Z,10
2017-09-15T05:11:52.139Z,10.13
2017-09-15T05:13:02.577Z,10.1
2017-09-15T05:14:12.685Z,10.19
2017-09-15T05:15:23.108Z,10.18
2017-09-15T05:16:33.789Z,10.15
2017-09-15T05:17:44.296Z,10.15
2017-09-15T05:18:54.715Z,10.18
2017-09-15T05:20:05.331Z,10.15
2017-09-15T05:21:15.779Z,10.11
2017-09-15T05:22:26.569Z,10
2017-09-15T05:23:37.032Z,10.02
2017-09-15T05:24:47.486Z,10.02
2017-09-15T05:25:57.944Z,9.92
2017-09-15T05:27:08.502Z,9.85
2017-09-15T05:28:19.258Z,9.84
2017-09-15T05:29:29.706Z,9.78
2017-09-15T05:30:40.245Z,9.73
2017-09-15T05:31:50.659Z,9.74
2017-09-15T05:33:01.254Z,9.77
2017-09-15T05:34:12.556Z,9.77
2017-09-15T05:35:22.981Z,9.62
2017-09-15T05:36:33.421Z,9.75
2017-09-15T05:37:43.881Z,9.75
2017-09-15T05:38:54.310Z,9.74
2017-09-15T05:40:04.986Z,9.75
2017-09-15T05:41:15.443Z,9.81
2017-09-15T05:42:25.902Z,9.81
2017-09-15T05:43:36.478Z,9.75
2017-09-15T05:44:46.922Z,9.75
2017-09-15T05:45:57.641Z,9.75
2017-09-15T05:47:08.097Z,9.81
2017-09-15T05:48:17.946Z,9.84
2017-09-15T05:49:28.383Z,9.83
2017-09-15T05:50:38.495Z,9.88
2017-09-15T05:51:49.196Z,9.89
2017-09-15T05:52:59.188Z,9.92
2017-09-15T05:54:09.343Z,9.88
2017-09-15T05:55:19.890Z,9.96
2017-09-15T05:56:30.341Z,10.08
2017-09-15T05:57:41.279Z,9.99
2017-09-15T05:58:51.726Z,10
2017-09-15T06:00:02.353Z,9.99
2017-09-15T06:01:12.843Z,10.17
2017-09-15T06:02:22.987Z,10.15
2017-09-15T06:03:33.868Z,10.29
2017-09-15T06:04:44.384Z,10.19
2017-09-15T06:05:54.884Z,10.11
2017-09-15T06:07:05.029Z,10.22
2017-09-15T06:08:15.453Z,10.21
2017-09-15T06:09:25.891Z,10.22
2017-09-15T06:10:36.551Z,10.33
2017-09-15T06:11:46.687Z,10.32
2017-09-15T06:12:57.129Z,10.3
2017-09-15T06:14:07.561Z,10.39
2017-09-15T06:15:18.314Z,10.26
2017-09-15T06:16:28.738Z,10.24
2017-09-15T06:17:38.880Z,10.34
2017-09-15T06:18:49.302Z,10.39
2017-09-15T06:19:59.748Z,10.37
2017-09-15T06:21:10.109Z,10.4
2017-09-15T06:22:20.676Z,10.4
2017-09-15T06:23:31.111Z,10.39
2017-09-15T06:24:41.606Z,10.5
2017-09-15T06:25:52.719Z,10.51
2017-09-15T06:27:03.417Z,10.51
2017-09-15T06:28:13.854Z,10.48
2017-09-15T06:29:24.346Z,10.59
2017-09-15T06:30:34.789Z,10.54
2017-09-15T06:31:45.210Z,10.58
2017-09-15T06:32:55.916Z,10.55
2017-09-15T06:34:06.525Z,10.54
2017-09-15T06:35:16.996Z,10.59
2017-09-15T06:36:27.446Z,10.65
2017-09-15T06:37:37.559Z,10.59
2017-09-15T06:38:48.237Z,10.72
2017-09-15T06:39:58.366Z,10.73
2017-09-15T06:41:08.789Z,10.75
2017-09-15T06:42:19.214Z,10.76
2017-09-15T06:43:29.627Z,10.73
2017-09-15T06:44:40.337Z,10.76
2017-09-15T06:45:50.847Z,10.73
2017-09-15T06:47:00.966Z,10.69
2017-09-15T06:48:11.424Z,10.8
2017-09-15T06:49:21.722Z,10.79
2017-09-15T06:50:32.426Z,10.83
2017-09-15T06:51:42.877Z,10.87
2017-09-15T06:52:53.320Z,10.95
2017-09-15T06:54:03.834Z,10.92
2017-09-15T06:55:14.283Z,11.02
2017-09-15T06:56:24.984Z,11.06
2017-09-15T06:57:35.464Z,11.06
2017-09-15T06:58:45.923Z,11.15
2017-09-15T06:59:56.082Z,11.12
2017-09-15T07:01:06.511Z,11.12
2017-09-15T07:02:16.874Z,11.13
2017-09-15T07:03:27.212Z,11.21
2017-09-15T07:04:37.650Z,11.25
2017-09-15T07:05:48.099Z,11.13
2017-09-15T07:06:58.513Z,11.17
2017-09-15T07:08:09.183Z,11.24
2017-09-15T07:09:19.619Z,11.2
2017-09-15T07:10:30.082Z,11.31
2017-09-15T07:11:40.280Z,11.34
2017-09-15T07:12:50.409Z,11.31
2017-09-15T07:14:00.767Z,11.35
2017-09-15T07:15:11.183Z,11.42
2017-09-15T07:16:21.618Z,11.4
2017-09-15T07:17:32.052Z,11.5
2017-09-15T07:18:42.513Z,11.49
2017-09-15T07:19:53.212Z,11.58
2017-09-15T07:21:03.199Z,11.58
2017-09-15T07:22:13.833Z,11.59
2017-09-15T07:23:24.365Z,11.68
2017-09-15T07:24:34.787Z,11.77
2017-09-15T07:25:45.470Z,11.74
2017-09-15T07:26:55.620Z,11.84
2017-09-15T07:28:06.676Z,11.9
2017-09-15T07:29:17.116Z,12.01
2017-09-15T07:30:27.590Z,12.04
2017-09-15T07:31:38.317Z,12.13
2017-09-15T07:32:48.627Z,12.2
2017-09-15T07:33:59.065Z,12.17
2017-09-15T07:35:09.516Z,12.26
2017-09-15T07:36:19.973Z,12.26
2017-09-15T07:37:30.678Z,12.34
2017-09-15T07:38:41.165Z,12.48
2017-09-15T07:39:51.665Z,12.55
2017-09-15T07:41:01.809Z,12.64
2017-09-15T07:42:12.233Z,12.78
2017-09-15T07:43:23.010Z,12.84
2017-09-15T07:44:33.012Z,12.97
2017-09-15T07:45:43.520Z,13.16
2017-09-15T07:46:53.960Z,13.41
2017-09-15T07:48:04.604Z,13.63
2017-09-15T07:49:15.279Z,13.82
2017-09-15T07:50:25.725Z,13.88
2017-09-15T07:51:36.192Z,14
2017-09-15T07:52:46.783Z,14.06
2017-09-15T07:53:57.449Z,14.03
2017-09-15T07:55:07.824Z,14.11
2017-09-15T07:56:17.938Z,14.25
2017-09-15T07:57:28.379Z,14.83
2017-09-15T07:58:39.039Z,15.87
2017-09-15T07:59:49.501Z,16.66
2017-09-15T08:01:00.193Z,17.55
2017-09-15T08:02:10.964Z,18.17
2017-09-15T08:03:21.400Z,18.94
2017-09-15T08:04:31.868Z,19.61
2017-09-15T08:05:42.315Z,20.28
2017-09-15T08:06:53.005Z,20.39
2017-09-15T08:08:03.139Z,20.75
2017-09-15T08:09:13.575Z,21.12
2017-09-15T08:10:24.007Z,21.5
2017-09-15T08:11:34.613Z,21.75
2017-09-15T08:12:45.584Z,21.91
2017-09-15T08:13:55.999Z,22.21
2017-09-15T08:15:06.477Z,22.55
2017-09-15T08:16:17.215Z,22.87
2017-09-15T08:17:27.472Z,23.16
2017-09-15T08:18:38.147Z,22.45
2017-09-15T08:19:48.595Z,22.08
2017-09-15T08:20:59.015Z,21.57
2017-09-15T08:22:09.463Z,21.22
2017-09-15T08:23:19.954Z,21.08
2017-09-15T08:24:30.630Z,21
2017-09-15T08:25:41.362Z,20.81
2017-09-15T08:26:51.801Z,20.3
2017-09-15T08:28:02.322Z,19.83
2017-09-15T08:29:12.930Z,19.55
2017-09-15T08:30:23.774Z,19.23
2017-09-15T08:31:34.224Z,19.13
2017-09-15T08:32:44.691Z,18.72
2017-09-15T08:33:55.196Z,18.28
2017-09-15T08:35:05.629Z,17.87
2017-09-15T08:36:16.017Z,17.5
2017-09-15T08:37:26.471Z,17.21
2017-09-15T08:38:36.927Z,16.75
2017-09-15T08:39:47.564Z,16.5
2017-09-15T08:40:58.195Z,16.11
2017-09-15T08:42:09.860Z,16.09
2017-09-15T08:43:20.303Z,16.66
2017-09-15T08:44:30.755Z,16.75
2017-09-15T08:45:41.191Z,16.69
2017-09-15T08:46:51.827Z,16.59
2017-09-15T08:48:02.520Z,16.43
2017-09-15T08:49:13.000Z,16.83
2017-09-15T08:50:23.455Z,17.68
2017-09-15T08:51:33.221Z,17.86
2017-09-15T08:52:44.680Z,18.3
2017-09-15T08:53:55.417Z,18.46
2017-09-15T08:55:05.874Z,18.93
2017-09-15T08:56:16.328Z,19.31
2017-09-15T08:57:26.996Z,19.13
2017-09-15T08:58:37.252Z,19.12
2017-09-15T08:59:47.675Z,18.94
2017-09-15T09:00:58.112Z,18.65
2017-09-15T09:02:08.574Z,18.26
2017-09-15T09:03:19.131Z,17.85
2017-09-15T09:04:29.574Z,17.46
2017-09-15T09:05:40.250Z,17.27
2017-09-15T09:06:50.710Z,17.02
2017-09-15T09:08:00.893Z,16.8
2017-09-15T09:09:11.334Z,16.46
2017-09-15T09:10:21.804Z,16.28
2017-09-15T09:11:32.598Z,15.96
2017-09-15T09:12:43.053Z,15.8
2017-09-15T09:13:53.514Z,15.69
2017-09-15T09:15:03.664Z,15.45
2017-09-15T09:16:13.698Z,15.27
2017-09-15T09:17:23.947Z,15.27
2017-09-15T09:18:34.097Z,15.35
2017-09-15T09:19:44.632Z,15.27
2017-09-15T09:20:55.062Z,15.24
2017-09-15T09:22:05.587Z,15.24
2017-09-15T09:23:16.289Z,15.25
2017-09-15T09:24:26.972Z,15.46
2017-09-15T09:25:37.405Z,15.42
2017-09-15T09:26:47.851Z,15.51
2017-09-15T09:27:59.368Z,15.91
2017-09-15T09:29:10.060Z,16.14
2017-09-15T09:30:20.569Z,16.28
2017-09-15T09:31:31.081Z,16.99
2017-09-15T09:32:41.530Z,17.47
2017-09-15T09:33:51.649Z,17.76
2017-09-15T09:35:02.040Z,17.91
2017-09-15T09:36:12.489Z,18.34
2017-09-15T09:37:22.964Z,18.72
2017-09-15T09:38:33.431Z,19.28
2017-09-15T09:39:43.859Z,19.98
2017-09-15T09:40:54.598Z,20.46
2017-09-15T09:42:05.129Z,20.83
2017-09-15T09:43:15.616Z,21.06
2017-09-15T09:44:26.073Z,21.19
2017-09-15T09:45:36.552Z,21.57
2017-09-15T09:46:47.231Z,21.57
2017-09-15T09:47:57.682Z,21.53
2017-09-15T09:49:08.214Z,21.23
2017-09-15T09:50:18.654Z,20.98
2017-09-15T09:51:28.860Z,20.56
2017-09-15T09:52:39.558Z,20.38
2017-09-15T09:53:50.081Z,20.27
2017-09-15T09:55:00.530Z,20.11
2017-09-15T09:56:11.008Z,20.12
2017-09-15T09:57:21.140Z,20.54
2017-09-15T09:58:31.557Z,21.01
2017-09-15T09:59:41.868Z,21.53
2017-09-15T10:00:52.337Z,22.05
2017-09-15T10:02:02.860Z,22.24
2017-09-15T10:03:13.316Z,22.13
2017-09-15T10:04:24.007Z,22.11
2017-09-15T10:05:34.449Z,22.01
2017-09-15T10:06:44.929Z,21.56
2017-09-15T10:07:55.465Z,21.12
2017-09-15T10:09:06.097Z,20.66
2017-09-15T10:10:16.889Z,20.42
2017-09-15T10:11:27.335Z,19.93
2017-09-15T10:12:37.781Z,19.73
2017-09-15T10:13:48.216Z,19.46
2017-09-15T10:14:58.755Z,19.21
2017-09-15T10:16:09.526Z,19.39
2017-09-15T10:17:19.966Z,19.34
2017-09-15T10:18:30.554Z,19.53
2017-09-15T10:19:41.136Z,19.85
2017-09-15T10:20:51.594Z,20.17
2017-09-15T10:22:02.296Z,20.46
2017-09-15T10:23:12.446Z,20.38
2017-09-15T10:24:22.911Z,20.28
2017-09-15T10:25:32.937Z,20.07
2017-09-15T10:26:43.396Z,19.89
2017-09-15T10:27:54.155Z,19.64
2017-09-15T10:29:04.622Z,19.55
2017-09-15T10:30:14.804Z,19.97
2017-09-15T10:31:25.250Z,20.14
2017-09-15T10:32:35.753Z,20.17
2017-09-15T10:33:46.471Z,20
2017-09-15T10:34:56.941Z,19.83
2017-09-15T10:36:07.379Z,19.65
2017-09-15T10:37:17.893Z,19.42
2017-09-15T10:38:28.368Z,19.53
2017-09-15T10:39:38.818Z,19.67
2017-09-15T10:40:49.266Z,19.9
2017-09-15T10:41:59.799Z,20.21
2017-09-15T10:43:10.147Z,20.49
2017-09-15T10:44:20.607Z,20.85
2017-09-15T10:45:31.388Z,21.23
2017-09-15T10:46:41.897Z,21.53
2017-09-15T10:47:52.359Z,21.87
2017-09-15T10:49:02.920Z,22.21
2017-09-15T10:50:13.094Z,22.48
2017-09-15T10:51:23.822Z,22.79
2017-09-15T10:52:34.267Z,23.09
2017-09-15T10:53:44.746Z,23.42
2017-09-15T10:54:55.194Z,23.58
2017-09-15T10:56:05.673Z,23.54
2017-09-15T10:57:16.365Z,23.65
2017-09-15T10:58:26.883Z,23.72
2017-09-15T10:59:37.392Z,23.79
2017-09-15T11:00:47.914Z,23.53
2017-09-15T11:01:58.422Z,23.46
2017-09-15T11:03:09.111Z,23.5
2017-09-15T11:04:19.593Z,23.16
2017-09-15T11:05:30.166Z,22.75
2017-09-15T11:06:41.290Z,22.38
2017-09-15T11:07:51.774Z,22.27
2017-09-15T11:09:02.495Z,21.96
2017-09-15T11:10:13.001Z,21.53
2017-09-15T11:11:23.562Z,21.15
2017-09-15T11:12:33.574Z,20.94
2017-09-15T11:13:43.711Z,20.67
2017-09-15T11:14:54.447Z,20.2
2017-09-15T11:16:04.890Z,19.83
2017-09-15T11:17:15.339Z,19.56
2017-09-15T11:18:25.791Z,19.3
2017-09-15T11:19:37.239Z,19.02
2017-09-15T11:20:47.954Z,18.73
2017-09-15T11:21:58.237Z,18.49
2017-09-15T11:23:08.837Z,18.35
2017-09-15T11:24:18.964Z,18.15
2017-09-15T11:25:29.155Z,18.09
2017-09-15T11:26:39.527Z,18.05
2017-09-15T11:27:49.359Z,18.46
2017-09-15T11:28:59.973Z,18.59
2017-09-15T11:30:09.999Z,18.73
2017-09-15T11:31:20.576Z,18.82
2017-09-15T11:32:31.398Z,18.84
2017-09-15T11:33:41.615Z,18.91
2017-09-15T11:34:52.065Z,18.78
2017-09-15T11:36:02.241Z,18.67
2017-09-15T11:37:12.729Z,18.55
2017-09-15T11:38:23.550Z,18.41
2017-09-15T11:39:34.008Z,18.35
2017-09-15T11:40:44.485Z,18.37
2017-09-15T11:41:55.133Z,18.63
2017-09-15T11:43:05.626Z,19.1
2017-09-15T11:44:17.024Z,19.34
2017-09-15T11:45:27.768Z,19.89
2017-09-15T11:46:37.912Z,20.17
2017-09-15T11:47:48.347Z,20.53
2017-09-15T11:48:58.364Z,20.82
2017-09-15T11:50:09.201Z,20.85
2017-09-15T11:51:19.670Z,20.75
2017-09-15T11:52:29.820Z,20.49
2017-09-15T11:53:39.821Z,20.45
2017-09-15T11:54:50.267Z,20.23
2017-09-15T11:56:01.022Z,19.92
2017-09-15T11:57:11.546Z,19.67
2017-09-15T11:58:22.001Z,19.34
2017-09-15T11:59:32.241Z,19.24
2017-09-15T12:00:42.714Z,19.1
2017-09-15T12:01:53.436Z,18.69
2017-09-15T12:03:03.901Z,18.4
2017-09-15T12:04:14.338Z,18.25
2017-09-15T12:05:24.781Z,18.13
2017-09-15T12:06:35.289Z,18.01
2017-09-15T12:07:46.038Z,17.76
2017-09-15T12:08:56.182Z,17.61
2017-09-15T12:10:06.616Z,17.45
2017-09-15T12:11:17.305Z,17.36
2017-09-15T12:12:27.816Z,17.21
2017-09-15T12:13:38.580Z,17.21
2017-09-15T12:14:49.118Z,17.28
2017-09-15T12:15:59.567Z,17.14
2017-09-15T12:17:10.014Z,17.05
2017-09-15T12:18:20.550Z,16.91
2017-09-15T12:19:31.245Z,16.76
2017-09-15T12:20:41.709Z,16.71
2017-09-15T12:21:52.159Z,16.54
2017-09-15T12:23:02.601Z,16.57
2017-09-15T12:24:12.800Z,16.51
2017-09-15T12:25:24.176Z,16.46
2017-09-15T12:26:34.671Z,16.39
2017-09-15T12:27:45.119Z,16.42
2017-09-15T12:28:55.572Z,16.42
2017-09-15T12:30:06.049Z,16.42
2017-09-15T12:31:16.743Z,16.36
2017-09-15T12:32:27.184Z,16.27
2017-09-15T12:33:37.635Z,16.28
2017-09-15T12:34:48.103Z,16.28
2017-09-15T12:35:58.199Z,16.19
2017-09-15T12:37:08.902Z,16.29
2017-09-15T12:38:19.376Z,16.19
2017-09-15T12:39:29.829Z,16.27
2017-09-15T12:40:39.962Z,16.28
2017-09-15T12:41:50.397Z,16.2
2017-09-15T12:43:01.148Z,16.25
2017-09-15T12:44:12.566Z,16.14
2017-09-15T12:45:23.020Z,16.17
2017-09-15T12:46:33.472Z,16.13
2017-09-15T12:47:43.956Z,16.14
2017-09-15T12:48:54.656Z,16.09
2017-09-15T12:50:04.781Z,16.11
2017-09-15T12:51:15.456Z,16.11
2017-09-15T12:52:26.011Z,16.07
2017-09-15T12:53:36.136Z,15.96
2017-09-15T12:54:46.839Z,16.04
2017-09-15T12:55:57.268Z,15.96
2017-09-15T12:57:07.728Z,15.91
2017-09-15T12:58:18.215Z,15.92
2017-09-15T12:59:28.689Z,15.98
2017-09-15T13:00:39.404Z,15.94
2017-09-15T13:01:49.910Z,15.8
2017-09-15T13:03:00.703Z,15.89
2017-09-15T13:04:11.138Z,15.84
2017-09-15T13:05:21.613Z,15.88
2017-09-15T13:06:32.332Z,15.88
2017-09-15T13:07:42.790Z,15.82
2017-09-15T13:08:53.327Z,15.82
2017-09-15T13:10:03.492Z,15.84
2017-09-15T13:11:13.530Z,15.79
2017-09-15T13:12:24.256Z,15.76
2017-09-15T13:13:34.702Z,15.75
2017-09-15T13:14:44.910Z,15.75
2017-09-15T13:15:55.376Z,15.79
2017-09-15T13:17:05.820Z,15.69
2017-09-15T13:18:16.520Z,15.76
2017-09-15T13:19:26.729Z,15.87
2017-09-15T13:20:37.201Z,15.75
2017-09-15T13:21:47.689Z,15.76
2017-09-15T13:22:58.222Z,15.7
2017-09-15T13:24:09.004Z,15.8
2017-09-15T13:25:19.476Z,15.76
2017-09-15T13:26:29.913Z,15.68
2017-09-15T13:27:40.578Z,15.75
2017-09-15T13:28:51.144Z,15.57
2017-09-15T13:30:01.982Z,15.54
2017-09-15T13:31:12.424Z,15.64
2017-09-15T13:32:22.908Z,15.58
2017-09-15T13:33:33.382Z,15.63
2017-09-15T13:34:43.973Z,15.61
2017-09-15T13:35:54.777Z,15.61
2017-09-15T13:37:05.447Z,15.61
2017-09-15T13:38:16.118Z,15.68
2017-09-15T13:39:26.577Z,15.68
2017-09-15T13:40:37.025Z,15.58
2017-09-15T13:41:47.733Z,15.69
2017-09-15T13:42:58.262Z,15.69
2017-09-15T13:44:08.715Z,15.66
2017-09-15T13:45:18.837Z,15.7
2017-09-15T13:46:29.435Z,15.66
2017-09-15T13:47:39.816Z,15.68
2017-09-15T13:48:50.299Z,15.7
2017-09-15T13:50:00.422Z,15.66
2017-09-15T13:51:11.000Z,15.68
2017-09-15T13:52:21.504Z,15.72
2017-09-15T13:53:32.283Z,15.69
2017-09-15T13:54:42.783Z,15.55
2017-09-15T13:55:53.298Z,15.57
2017-09-15T13:57:03.770Z,15.58
2017-09-15T13:58:14.232Z,15.63
2017-09-15T13:59:24.200Z,15.66
2017-09-15T14:00:34.740Z,15.75
2017-09-15T14:01:45.211Z,15.63
2017-09-15T14:02:55.661Z,15.63
2017-09-15T14:04:06.179Z,15.6
2017-09-15T14:05:16.934Z,15.63
2017-09-15T14:06:27.172Z,15.54
2017-09-15T14:07:37.362Z,15.55
2017-09-15T14:08:47.811Z,15.53
2017-09-15T14:09:57.930Z,15.48
2017-09-15T14:11:08.627Z,15.4
2017-09-15T14:12:19.077Z,15.3
2017-09-15T14:13:29.626Z,15.24
2017-09-15T14:14:40.128Z,15.35
2017-09-15T14:15:50.318Z,15.2
2017-09-15T14:17:00.701Z,15.13
2017-09-15T14:18:11.182Z,15.06
2017-09-15T14:19:21.637Z,15.06
2017-09-15T14:20:32.305Z,15.06
2017-09-15T14:21:42.751Z,14.95
2017-09-15T14:22:53.614Z,14.95
2017-09-15T14:24:04.065Z,15
2017-09-15T14:25:14.728Z,15.09
2017-09-15T14:26:25.013Z,15.09
2017-09-15T14:27:35.138Z,14.99
2017-09-15T14:28:45.906Z,15.09
2017-09-15T14:29:56.024Z,15.15
2017-09-15T14:31:06.473Z,15.25
2017-09-15T14:32:16.604Z,15.27
2017-09-15T14:33:27.124Z,15.24
2017-09-15T14:34:37.896Z,15.33
2017-09-15T14:35:48.323Z,15.33
2017-09-15T14:36:58.913Z,15.35
2017-09-15T14:38:09.383Z,15.38
2017-09-15T14:39:19.892Z,15.48
2017-09-15T14:40:30.601Z,15.48
2017-09-15T14:41:40.784Z,15.54
2017-09-15T14:42:51.262Z,15.53
2017-09-15T14:44:01.754Z,15.58
2017-09-15T14:45:12.404Z,15.69
2017-09-15T14:46:22.830Z,15.64
2017-09-15T14:47:33.375Z,15.76
2017-09-15T14:48:43.830Z,15.84
2017-09-15T14:49:53.899Z,15.8
2017-09-15T14:51:04.476Z,15.89
2017-09-15T14:52:15.207Z,15.87
2017-09-15T14:53:25.718Z,15.91
2017-09-15T14:54:36.202Z,15.94
2017-09-15T14:55:46.688Z,15.94
2017-09-15T14:56:56.837Z,15.89
2017-09-15T14:58:07.618Z,15.78
2017-09-15T14:59:18.127Z,15.78
2017-09-15T15:00:28.579Z,15.69
2017-09-15T15:01:39.069Z,15.53
2017-09-15T15:02:49.254Z,15.42
2017-09-15T15:04:00.188Z,15.38
2017-09-15T15:05:10.649Z,15.3
2017-09-15T15:06:21.182Z,15.23
2017-09-15T15:07:31.812Z,15.23
2017-09-15T15:08:42.278Z,15.25
2017-09-15T15:09:52.538Z,15.24
2017-09-15T15:11:02.687Z,15.24
2017-09-15T15:12:13.176Z,15.13
2017-09-15T15:13:23.625Z,15.09
2017-09-15T15:14:34.263Z,15.14